sensor_id;sensor_type;location;lat;lon;timestamp;P1;durP1;ratioP1;P2;durP2;ratioP2
6406;SDS011;3236;51.022;6.818;2022-07-30T00:01:13;9.77;;;7.85;;
6406;SDS011;3236;51.022;6.818;2022-07-30T00:03:40;15.68;;;8.38;;
6406;SDS011;3236;51.022;6.818;2022-07-30T00:06:07;10.13;;;7.50;;
6406;SDS011;3236;51.022;6.818;2022-07-30T00:08:36;13.20;;;8.88;;
6406;SDS011;3236;51.022;6.818;2022-07-30T00:11:05;12.95;;;7.97;;
6406;SDS011;3236;51.022;6.818;2022-07-30T00:13:33;10.77;;;7.63;;
6406;SDS011;3236;51.022;6.818;2022-07-30T00:16:00;9.45;;;7.72;;
6406;SDS011;3236;51.022;6.818;2022-07-30T00:18:27;10.02;;;7.55;;
6406;SDS011;3236;51.022;6.818;2022-07-30T00:21:00;13.20;;;7.75;;
6406;SDS011;3236;51.022;6.818;2022-07-30T00:23:30;12.35;;;7.80;;
6406;SDS011;3236;51.022;6.818;2022-07-30T00:25:59;14.27;;;8.02;;
6406;SDS011;3236;51.022;6.818;2022-07-30T00:28:29;15.25;;;7.68;;
6406;SDS011;3236;51.022;6.818;2022-07-30T00:30:56;13.00;;;7.97;;
6406;SDS011;3236;51.022;6.818;2022-07-30T00:33:23;11.35;;;7.60;;
6406;SDS011;3236;51.022;6.818;2022-07-30T00:35:50;12.68;;;7.97;;
6406;SDS011;3236;51.022;6.818;2022-07-30T00:38:17;22.13;;;7.88;;
6406;SDS011;3236;51.022;6.818;2022-07-30T00:40:45;12.38;;;8.02;;
6406;SDS011;3236;51.022;6.818;2022-07-30T00:43:14;17.05;;;7.70;;
6406;SDS011;3236;51.022;6.818;2022-07-30T00:45:42;12.30;;;7.10;;
6406;SDS011;3236;51.022;6.818;2022-07-30T00:48:09;15.65;;;8.50;;
6406;SDS011;3236;51.022;6.818;2022-07-30T00:50:38;12.35;;;8.02;;
6406;SDS011;3236;51.022;6.818;2022-07-30T00:53:06;16.33;;;8.02;;
6406;SDS011;3236;51.022;6.818;2022-07-30T00:55:33;14.88;;;8.07;;
6406;SDS011;3236;51.022;6.818;2022-07-30T00:58:01;18.15;;;8.43;;
6406;SDS011;3236;51.022;6.818;2022-07-30T01:00:29;13.40;;;7.80;;
6406;SDS011;3236;51.022;6.818;2022-07-30T01:02:57;13.20;;;8.27;;
6406;SDS011;3236;51.022;6.818;2022-07-30T01:05:25;15.05;;;8.75;;
6406;SDS011;3236;51.022;6.818;2022-07-30T01:07:55;14.95;;;8.52;;
6406;SDS011;3236;51.022;6.818;2022-07-30T01:10:22;19.70;;;9.00;;
6406;SDS011;3236;51.022;6.818;2022-07-30T01:12:49;15.20;;;8.32;;
6406;SDS011;3236;51.022;6.818;2022-07-30T01:15:19;15.90;;;8.30;;
6406;SDS011;3236;51.022;6.818;2022-07-30T01:17:48;18.85;;;8.65;;
6406;SDS011;3236;51.022;6.818;2022-07-30T01:20:17;18.25;;;9.07;;
6406;SDS011;3236;51.022;6.818;2022-07-30T01:22:50;16.35;;;8.68;;
6406;SDS011;3236;51.022;6.818;2022-07-30T01:28:18;19.20;;;8.52;;
6406;SDS011;3236;51.022;6.818;2022-07-30T01:30:49;17.55;;;9.55;;
6406;SDS011;3236;51.022;6.818;2022-07-30T01:33:17;14.45;;;8.50;;
6406;SDS011;3236;51.022;6.818;2022-07-30T01:35:47;12.75;;;9.27;;
6406;SDS011;3236;51.022;6.818;2022-07-30T01:38:16;14.93;;;9.50;;
6406;SDS011;3236;51.022;6.818;2022-07-30T01:40:48;14.05;;;9.68;;
6406;SDS011;3236;51.022;6.818;2022-07-30T01:43:17;18.85;;;9.70;;
6406;SDS011;3236;51.022;6.818;2022-07-30T01:45:46;19.35;;;9.35;;
6406;SDS011;3236;51.022;6.818;2022-07-30T01:48:13;17.10;;;9.93;;
6406;SDS011;3236;51.022;6.818;2022-07-30T01:50:43;17.52;;;9.93;;
6406;SDS011;3236;51.022;6.818;2022-07-30T01:53:14;13.13;;;10.25;;
6406;SDS011;3236;51.022;6.818;2022-07-30T01:55:44;15.88;;;10.20;;
6406;SDS011;3236;51.022;6.818;2022-07-30T01:58:13;17.13;;;9.68;;
6406;SDS011;3236;51.022;6.818;2022-07-30T02:03:11;15.95;;;9.90;;
6406;SDS011;3236;51.022;6.818;2022-07-30T02:05:42;19.05;;;10.15;;
6406;SDS011;3236;51.022;6.818;2022-07-30T02:08:19;19.42;;;10.75;;
6406;SDS011;3236;51.022;6.818;2022-07-30T02:10:57;19.20;;;11.15;;
6406;SDS011;3236;51.022;6.818;2022-07-30T02:13:29;21.90;;;12.18;;
6406;SDS011;3236;51.022;6.818;2022-07-30T02:16:00;18.90;;;11.57;;
6406;SDS011;3236;51.022;6.818;2022-07-30T02:18:35;21.88;;;10.75;;
6406;SDS011;3236;51.022;6.818;2022-07-30T02:21:11;15.90;;;10.20;;
6406;SDS011;3236;51.022;6.818;2022-07-30T02:23:40;16.17;;;10.07;;
6406;SDS011;3236;51.022;6.818;2022-07-30T02:26:08;20.65;;;10.55;;
6406;SDS011;3236;51.022;6.818;2022-07-30T02:28:41;18.20;;;10.93;;
6406;SDS011;3236;51.022;6.818;2022-07-30T02:31:13;16.20;;;10.75;;
6406;SDS011;3236;51.022;6.818;2022-07-30T02:33:42;15.15;;;11.07;;
6406;SDS011;3236;51.022;6.818;2022-07-30T02:36:12;15.70;;;10.25;;
6406;SDS011;3236;51.022;6.818;2022-07-30T02:38:41;16.70;;;9.63;;
6406;SDS011;3236;51.022;6.818;2022-07-30T02:41:09;15.60;;;10.70;;
6406;SDS011;3236;51.022;6.818;2022-07-30T02:43:38;17.77;;;10.07;;
6406;SDS011;3236;51.022;6.818;2022-07-30T02:46:08;12.43;;;9.80;;
6406;SDS011;3236;51.022;6.818;2022-07-30T02:48:38;15.02;;;10.65;;
6406;SDS011;3236;51.022;6.818;2022-07-30T02:51:06;23.90;;;11.10;;
6406;SDS011;3236;51.022;6.818;2022-07-30T02:53:36;17.60;;;10.63;;
6406;SDS011;3236;51.022;6.818;2022-07-30T02:56:05;17.50;;;9.02;;
6406;SDS011;3236;51.022;6.818;2022-07-30T02:58:33;16.92;;;9.70;;
6406;SDS011;3236;51.022;6.818;2022-07-30T03:01:02;23.58;;;9.98;;
6406;SDS011;3236;51.022;6.818;2022-07-30T03:03:31;16.98;;;10.65;;
6406;SDS011;3236;51.022;6.818;2022-07-30T03:06:00;14.10;;;10.02;;
6406;SDS011;3236;51.022;6.818;2022-07-30T03:08:27;15.80;;;10.18;;
6406;SDS011;3236;51.022;6.818;2022-07-30T03:10:57;18.83;;;11.07;;
6406;SDS011;3236;51.022;6.818;2022-07-30T03:13:24;21.65;;;10.35;;
6406;SDS011;3236;51.022;6.818;2022-07-30T03:15:51;15.18;;;10.60;;
6406;SDS011;3236;51.022;6.818;2022-07-30T03:18:21;20.30;;;11.15;;
6406;SDS011;3236;51.022;6.818;2022-07-30T03:20:52;15.70;;;10.40;;
6406;SDS011;3236;51.022;6.818;2022-07-30T03:25:51;20.45;;;11.07;;
6406;SDS011;3236;51.022;6.818;2022-07-30T03:28:22;13.73;;;11.50;;
6406;SDS011;3236;51.022;6.818;2022-07-30T03:30:50;21.65;;;12.60;;
6406;SDS011;3236;51.022;6.818;2022-07-30T03:33:18;20.67;;;12.50;;
6406;SDS011;3236;51.022;6.818;2022-07-30T03:35:46;22.58;;;13.27;;
6406;SDS011;3236;51.022;6.818;2022-07-30T03:38:16;20.67;;;13.02;;
6406;SDS011;3236;51.022;6.818;2022-07-30T03:40:44;19.55;;;12.68;;
6406;SDS011;3236;51.022;6.818;2022-07-30T03:43:11;15.70;;;12.88;;
6406;SDS011;3236;51.022;6.818;2022-07-30T03:45:40;20.58;;;11.98;;
6406;SDS011;3236;51.022;6.818;2022-07-30T03:48:09;15.75;;;12.95;;
6406;SDS011;3236;51.022;6.818;2022-07-30T03:50:38;22.23;;;14.27;;
6406;SDS011;3236;51.022;6.818;2022-07-30T03:53:07;25.67;;;14.32;;
6406;SDS011;3236;51.022;6.818;2022-07-30T03:55:36;21.23;;;13.32;;
6406;SDS011;3236;51.022;6.818;2022-07-30T03:58:04;19.65;;;13.75;;
6406;SDS011;3236;51.022;6.818;2022-07-30T04:00:32;20.60;;;13.90;;
6406;SDS011;3236;51.022;6.818;2022-07-30T04:02:59;19.48;;;12.93;;
6406;SDS011;3236;51.022;6.818;2022-07-30T04:05:26;24.77;;;13.27;;
6406;SDS011;3236;51.022;6.818;2022-07-30T04:07:53;22.33;;;14.43;;
6406;SDS011;3236;51.022;6.818;2022-07-30T04:10:20;23.05;;;14.00;;
6406;SDS011;3236;51.022;6.818;2022-07-30T04:12:49;18.30;;;13.05;;
6406;SDS011;3236;51.022;6.818;2022-07-30T04:15:16;17.63;;;13.30;;
6406;SDS011;3236;51.022;6.818;2022-07-30T04:17:45;21.45;;;14.25;;
6406;SDS011;3236;51.022;6.818;2022-07-30T04:20:15;20.42;;;14.07;;
6406;SDS011;3236;51.022;6.818;2022-07-30T04:22:47;23.42;;;15.00;;
6406;SDS011;3236;51.022;6.818;2022-07-30T04:25:15;23.90;;;14.55;;
6406;SDS011;3236;51.022;6.818;2022-07-30T04:27:42;20.58;;;14.60;;
6406;SDS011;3236;51.022;6.818;2022-07-30T04:30:11;19.10;;;13.90;;
6406;SDS011;3236;51.022;6.818;2022-07-30T04:32:38;21.08;;;13.90;;
6406;SDS011;3236;51.022;6.818;2022-07-30T04:35:06;18.63;;;13.75;;
6406;SDS011;3236;51.022;6.818;2022-07-30T04:37:34;19.52;;;14.35;;
6406;SDS011;3236;51.022;6.818;2022-07-30T04:40:01;23.45;;;13.82;;
6406;SDS011;3236;51.022;6.818;2022-07-30T04:42:28;19.13;;;13.30;;
6406;SDS011;3236;51.022;6.818;2022-07-30T04:44:59;30.77;;;17.52;;
6406;SDS011;3236;51.022;6.818;2022-07-30T04:47:27;20.83;;;14.60;;
6406;SDS011;3236;51.022;6.818;2022-07-30T04:50:00;21.10;;;13.77;;
6406;SDS011;3236;51.022;6.818;2022-07-30T04:52:27;22.35;;;14.55;;
6406;SDS011;3236;51.022;6.818;2022-07-30T04:54:55;22.83;;;15.43;;
6406;SDS011;3236;51.022;6.818;2022-07-30T04:57:28;29.52;;;16.27;;
6406;SDS011;3236;51.022;6.818;2022-07-30T04:59:56;20.13;;;14.00;;
6406;SDS011;3236;51.022;6.818;2022-07-30T05:02:24;21.88;;;15.77;;
6406;SDS011;3236;51.022;6.818;2022-07-30T05:04:56;20.23;;;14.15;;
6406;SDS011;3236;51.022;6.818;2022-07-30T05:07:24;24.52;;;14.52;;
6406;SDS011;3236;51.022;6.818;2022-07-30T05:09:52;22.67;;;15.07;;
6406;SDS011;3236;51.022;6.818;2022-07-30T05:12:19;19.17;;;14.45;;
6406;SDS011;3236;51.022;6.818;2022-07-30T05:14:47;29.15;;;14.25;;
6406;SDS011;3236;51.022;6.818;2022-07-30T05:17:14;23.67;;;14.10;;
6406;SDS011;3236;51.022;6.818;2022-07-30T05:19:41;25.95;;;15.00;;
6406;SDS011;3236;51.022;6.818;2022-07-30T05:22:10;23.00;;;14.80;;
6406;SDS011;3236;51.022;6.818;2022-07-30T05:24:37;23.27;;;14.23;;
6406;SDS011;3236;51.022;6.818;2022-07-30T05:27:04;21.95;;;14.60;;
6406;SDS011;3236;51.022;6.818;2022-07-30T05:29:31;27.83;;;16.13;;
6406;SDS011;3236;51.022;6.818;2022-07-30T05:31:58;27.30;;;15.48;;
6406;SDS011;3236;51.022;6.818;2022-07-30T05:34:25;24.77;;;16.02;;
6406;SDS011;3236;51.022;6.818;2022-07-30T05:36:52;27.13;;;16.85;;
6406;SDS011;3236;51.022;6.818;2022-07-30T05:39:21;26.00;;;16.65;;
6406;SDS011;3236;51.022;6.818;2022-07-30T05:41:48;32.38;;;16.88;;
6406;SDS011;3236;51.022;6.818;2022-07-30T05:44:15;29.35;;;16.73;;
6406;SDS011;3236;51.022;6.818;2022-07-30T05:46:42;23.55;;;15.70;;
6406;SDS011;3236;51.022;6.818;2022-07-30T05:49:09;26.60;;;17.30;;
6406;SDS011;3236;51.022;6.818;2022-07-30T05:51:37;32.90;;;17.40;;
6406;SDS011;3236;51.022;6.818;2022-07-30T05:54:04;41.13;;;19.95;;
6406;SDS011;3236;51.022;6.818;2022-07-30T05:56:32;39.80;;;23.20;;
6406;SDS011;3236;51.022;6.818;2022-07-30T05:59:00;34.75;;;21.85;;
6406;SDS011;3236;51.022;6.818;2022-07-30T06:01:27;37.78;;;22.45;;
6406;SDS011;3236;51.022;6.818;2022-07-30T06:03:54;38.95;;;21.75;;
6406;SDS011;3236;51.022;6.818;2022-07-30T06:06:22;42.65;;;22.90;;
6406;SDS011;3236;51.022;6.818;2022-07-30T06:08:49;42.83;;;23.35;;
6406;SDS011;3236;51.022;6.818;2022-07-30T06:11:16;48.05;;;24.05;;
6406;SDS011;3236;51.022;6.818;2022-07-30T06:13:45;43.60;;;24.27;;
6406;SDS011;3236;51.022;6.818;2022-07-30T06:16:12;49.40;;;23.80;;
6406;SDS011;3236;51.022;6.818;2022-07-30T06:18:41;42.38;;;25.02;;
6406;SDS011;3236;51.022;6.818;2022-07-30T06:21:09;46.40;;;25.88;;
6406;SDS011;3236;51.022;6.818;2022-07-30T06:23:36;44.83;;;24.58;;
6406;SDS011;3236;51.022;6.818;2022-07-30T06:26:06;44.33;;;24.05;;
6406;SDS011;3236;51.022;6.818;2022-07-30T06:28:33;37.78;;;19.70;;
6406;SDS011;3236;51.022;6.818;2022-07-30T06:31:05;44.60;;;19.63;;
6406;SDS011;3236;51.022;6.818;2022-07-30T06:35:59;38.83;;;19.80;;
6406;SDS011;3236;51.022;6.818;2022-07-30T06:38:29;40.13;;;18.75;;
6406;SDS011;3236;51.022;6.818;2022-07-30T06:40:56;45.65;;;20.40;;
6406;SDS011;3236;51.022;6.818;2022-07-30T06:43:24;47.65;;;21.08;;
6406;SDS011;3236;51.022;6.818;2022-07-30T06:45:52;37.70;;;19.02;;
6406;SDS011;3236;51.022;6.818;2022-07-30T06:48:20;39.85;;;19.13;;
6406;SDS011;3236;51.022;6.818;2022-07-30T06:50:48;39.17;;;18.13;;
6406;SDS011;3236;51.022;6.818;2022-07-30T06:53:16;39.88;;;18.25;;
6406;SDS011;3236;51.022;6.818;2022-07-30T06:55:43;41.47;;;18.92;;
6406;SDS011;3236;51.022;6.818;2022-07-30T06:58:10;37.05;;;18.48;;
6406;SDS011;3236;51.022;6.818;2022-07-30T07:00:38;32.55;;;16.42;;
6406;SDS011;3236;51.022;6.818;2022-07-30T07:03:05;35.20;;;15.88;;
6406;SDS011;3236;51.022;6.818;2022-07-30T07:05:36;35.42;;;16.65;;
6406;SDS011;3236;51.022;6.818;2022-07-30T07:08:04;32.80;;;15.55;;
6406;SDS011;3236;51.022;6.818;2022-07-30T07:10:31;24.30;;;14.50;;
6406;SDS011;3236;51.022;6.818;2022-07-30T07:12:58;26.10;;;15.23;;
6406;SDS011;3236;51.022;6.818;2022-07-30T07:15:26;28.42;;;15.55;;
6406;SDS011;3236;51.022;6.818;2022-07-30T07:17:53;28.17;;;14.43;;
6406;SDS011;3236;51.022;6.818;2022-07-30T07:20:20;27.48;;;13.73;;
6406;SDS011;3236;51.022;6.818;2022-07-30T07:22:49;27.65;;;13.90;;
6406;SDS011;3236;51.022;6.818;2022-07-30T07:25:17;29.17;;;13.85;;
6406;SDS011;3236;51.022;6.818;2022-07-30T07:27:48;23.42;;;14.00;;
6406;SDS011;3236;51.022;6.818;2022-07-30T07:30:24;27.05;;;12.98;;
6406;SDS011;3236;51.022;6.818;2022-07-30T07:32:52;21.38;;;12.65;;
6406;SDS011;3236;51.022;6.818;2022-07-30T07:35:22;22.30;;;11.75;;
6406;SDS011;3236;51.022;6.818;2022-07-30T07:37:50;21.92;;;12.25;;
6406;SDS011;3236;51.022;6.818;2022-07-30T07:40:17;21.98;;;11.80;;
6406;SDS011;3236;51.022;6.818;2022-07-30T07:42:45;23.17;;;12.50;;
6406;SDS011;3236;51.022;6.818;2022-07-30T07:45:12;21.67;;;12.13;;
6406;SDS011;3236;51.022;6.818;2022-07-30T07:47:43;20.63;;;12.30;;
6406;SDS011;3236;51.022;6.818;2022-07-30T07:50:12;20.63;;;11.15;;
6406;SDS011;3236;51.022;6.818;2022-07-30T07:52:41;27.08;;;12.38;;
6406;SDS011;3236;51.022;6.818;2022-07-30T07:55:10;26.45;;;12.52;;
6406;SDS011;3236;51.022;6.818;2022-07-30T07:57:37;22.60;;;11.20;;
6406;SDS011;3236;51.022;6.818;2022-07-30T08:00:06;25.42;;;11.77;;
6406;SDS011;3236;51.022;6.818;2022-07-30T08:02:37;24.38;;;11.70;;
6406;SDS011;3236;51.022;6.818;2022-07-30T08:05:05;22.83;;;11.65;;
6406;SDS011;3236;51.022;6.818;2022-07-30T08:07:34;22.88;;;12.13;;
6406;SDS011;3236;51.022;6.818;2022-07-30T08:10:02;23.30;;;11.18;;
6406;SDS011;3236;51.022;6.818;2022-07-30T08:12:31;22.75;;;12.57;;
6406;SDS011;3236;51.022;6.818;2022-07-30T08:14:58;25.75;;;13.57;;
6406;SDS011;3236;51.022;6.818;2022-07-30T08:17:26;25.48;;;13.70;;
6406;SDS011;3236;51.022;6.818;2022-07-30T08:19:56;23.42;;;13.52;;
6406;SDS011;3236;51.022;6.818;2022-07-30T08:22:24;30.23;;;12.65;;
6406;SDS011;3236;51.022;6.818;2022-07-30T08:24:55;26.92;;;14.38;;
6406;SDS011;3236;51.022;6.818;2022-07-30T08:27:22;28.83;;;12.38;;
6406;SDS011;3236;51.022;6.818;2022-07-30T08:29:51;23.30;;;11.68;;
6406;SDS011;3236;51.022;6.818;2022-07-30T08:32:19;23.27;;;11.80;;
6406;SDS011;3236;51.022;6.818;2022-07-30T08:34:46;18.35;;;10.50;;
6406;SDS011;3236;51.022;6.818;2022-07-30T08:37:13;29.40;;;12.50;;
6406;SDS011;3236;51.022;6.818;2022-07-30T08:39:41;20.90;;;10.82;;
6406;SDS011;3236;51.022;6.818;2022-07-30T08:42:10;25.30;;;12.43;;
6406;SDS011;3236;51.022;6.818;2022-07-30T08:44:44;22.30;;;11.55;;
6406;SDS011;3236;51.022;6.818;2022-07-30T08:47:15;22.27;;;11.75;;
6406;SDS011;3236;51.022;6.818;2022-07-30T08:49:43;19.58;;;11.27;;
6406;SDS011;3236;51.022;6.818;2022-07-30T08:52:15;20.92;;;10.63;;
6406;SDS011;3236;51.022;6.818;2022-07-30T08:54:43;19.10;;;10.60;;
6406;SDS011;3236;51.022;6.818;2022-07-30T08:57:10;20.15;;;12.77;;
6406;SDS011;3236;51.022;6.818;2022-07-30T08:59:37;23.35;;;12.05;;
6406;SDS011;3236;51.022;6.818;2022-07-30T09:02:05;22.27;;;11.07;;
6406;SDS011;3236;51.022;6.818;2022-07-30T09:04:34;23.42;;;10.95;;
6406;SDS011;3236;51.022;6.818;2022-07-30T09:07:01;15.75;;;9.38;;
6406;SDS011;3236;51.022;6.818;2022-07-30T09:09:28;19.15;;;10.00;;
6406;SDS011;3236;51.022;6.818;2022-07-30T09:11:55;19.38;;;11.38;;
6406;SDS011;3236;51.022;6.818;2022-07-30T09:14:23;24.60;;;10.60;;
6406;SDS011;3236;51.022;6.818;2022-07-30T09:16:54;24.20;;;11.77;;
6406;SDS011;3236;51.022;6.818;2022-07-30T09:19:22;23.30;;;9.73;;
6406;SDS011;3236;51.022;6.818;2022-07-30T09:21:57;20.17;;;10.48;;
6406;SDS011;3236;51.022;6.818;2022-07-30T09:24:25;22.35;;;10.50;;
6406;SDS011;3236;51.022;6.818;2022-07-30T09:26:53;26.33;;;12.43;;
6406;SDS011;3236;51.022;6.818;2022-07-30T09:29:23;23.02;;;10.38;;
6406;SDS011;3236;51.022;6.818;2022-07-30T09:31:52;20.67;;;9.95;;
6406;SDS011;3236;51.022;6.818;2022-07-30T09:36:54;16.40;;;9.15;;
6406;SDS011;3236;51.022;6.818;2022-07-30T09:39:27;14.30;;;8.00;;
6406;SDS011;3236;51.022;6.818;2022-07-30T09:41:55;17.63;;;8.00;;
6406;SDS011;3236;51.022;6.818;2022-07-30T09:44:27;17.52;;;9.27;;
6406;SDS011;3236;51.022;6.818;2022-07-30T09:46:55;16.17;;;8.02;;
6406;SDS011;3236;51.022;6.818;2022-07-30T09:49:23;14.93;;;7.30;;
6406;SDS011;3236;51.022;6.818;2022-07-30T09:51:52;17.05;;;7.55;;
6406;SDS011;3236;51.022;6.818;2022-07-30T09:54:21;18.42;;;8.85;;
6406;SDS011;3236;51.022;6.818;2022-07-30T09:56:58;16.02;;;8.63;;
6406;SDS011;3236;51.022;6.818;2022-07-30T09:59:31;12.25;;;7.18;;
6406;SDS011;3236;51.022;6.818;2022-07-30T10:01:58;10.00;;;6.00;;
6406;SDS011;3236;51.022;6.818;2022-07-30T10:04:25;15.68;;;7.00;;
6406;SDS011;3236;51.022;6.818;2022-07-30T10:06:57;10.90;;;7.65;;
6406;SDS011;3236;51.022;6.818;2022-07-30T10:11:55;11.40;;;7.03;;
6406;SDS011;3236;51.022;6.818;2022-07-30T10:14:29;15.40;;;8.20;;
6406;SDS011;3236;51.022;6.818;2022-07-30T10:16:57;12.20;;;8.70;;
6406;SDS011;3236;51.022;6.818;2022-07-30T10:19:25;13.05;;;8.20;;
6406;SDS011;3236;51.022;6.818;2022-07-30T10:21:52;17.23;;;9.23;;
6406;SDS011;3236;51.022;6.818;2022-07-30T10:24:22;14.93;;;8.65;;
6406;SDS011;3236;51.022;6.818;2022-07-30T10:26:50;12.75;;;6.68;;
6406;SDS011;3236;51.022;6.818;2022-07-30T10:29:20;15.65;;;6.35;;
6406;SDS011;3236;51.022;6.818;2022-07-30T10:31:50;14.68;;;7.13;;
6406;SDS011;3236;51.022;6.818;2022-07-30T10:34:18;8.93;;;5.95;;
6406;SDS011;3236;51.022;6.818;2022-07-30T10:36:46;10.35;;;6.20;;
6406;SDS011;3236;51.022;6.818;2022-07-30T10:39:16;9.38;;;4.43;;
6406;SDS011;3236;51.022;6.818;2022-07-30T10:41:51;9.30;;;5.05;;
6406;SDS011;3236;51.022;6.818;2022-07-30T10:44:40;12.38;;;6.07;;
6406;SDS011;3236;51.022;6.818;2022-07-30T10:47:24;11.70;;;6.43;;
6406;SDS011;3236;51.022;6.818;2022-07-30T10:52:45;12.50;;;6.78;;
6406;SDS011;3236;51.022;6.818;2022-07-30T10:55:17;12.50;;;6.50;;
6406;SDS011;3236;51.022;6.818;2022-07-30T10:57:58;16.55;;;6.90;;
6406;SDS011;3236;51.022;6.818;2022-07-30T11:00:28;11.18;;;7.00;;
6406;SDS011;3236;51.022;6.818;2022-07-30T11:05:44;7.18;;;5.10;;
6406;SDS011;3236;51.022;6.818;2022-07-30T11:08:28;13.05;;;6.53;;
6406;SDS011;3236;51.022;6.818;2022-07-30T11:11:01;11.32;;;4.63;;
6406;SDS011;3236;51.022;6.818;2022-07-30T11:16:17;12.45;;;5.05;;
6406;SDS011;3236;51.022;6.818;2022-07-30T11:19:01;11.00;;;6.97;;
6406;SDS011;3236;51.022;6.818;2022-07-30T11:21:33;6.18;;;5.25;;
6406;SDS011;3236;51.022;6.818;2022-07-30T11:24:01;12.57;;;5.18;;
6406;SDS011;3236;51.022;6.818;2022-07-30T11:29:32;9.30;;;4.63;;
6406;SDS011;3236;51.022;6.818;2022-07-30T11:32:23;5.78;;;3.83;;
6406;SDS011;3236;51.022;6.818;2022-07-30T11:34:52;6.57;;;3.67;;
6406;SDS011;3236;51.022;6.818;2022-07-30T11:37:58;6.95;;;3.65;;
6406;SDS011;3236;51.022;6.818;2022-07-30T11:40:31;10.25;;;4.20;;
6406;SDS011;3236;51.022;6.818;2022-07-30T11:43:17;6.78;;;3.40;;
6406;SDS011;3236;51.022;6.818;2022-07-30T11:46:03;4.20;;;2.45;;
6406;SDS011;3236;51.022;6.818;2022-07-30T11:48:35;5.93;;;3.00;;
6406;SDS011;3236;51.022;6.818;2022-07-30T11:51:06;6.85;;;2.70;;
6406;SDS011;3236;51.022;6.818;2022-07-30T11:53:36;8.10;;;3.50;;
6406;SDS011;3236;51.022;6.818;2022-07-30T11:56:07;12.37;;;3.03;;
6406;SDS011;3236;51.022;6.818;2022-07-30T11:58:37;9.20;;;3.80;;
6406;SDS011;3236;51.022;6.818;2022-07-30T12:01:04;5.32;;;3.20;;
6406;SDS011;3236;51.022;6.818;2022-07-30T12:03:39;7.85;;;2.83;;
6406;SDS011;3236;51.022;6.818;2022-07-30T12:06:10;6.35;;;2.63;;
6406;SDS011;3236;51.022;6.818;2022-07-30T12:08:42;7.32;;;2.90;;
6406;SDS011;3236;51.022;6.818;2022-07-30T12:11:13;8.13;;;3.22;;
6406;SDS011;3236;51.022;6.818;2022-07-30T12:13:54;7.15;;;2.83;;
6406;SDS011;3236;51.022;6.818;2022-07-30T12:16:24;6.60;;;2.53;;
6406;SDS011;3236;51.022;6.818;2022-07-30T12:18:54;4.15;;;2.85;;
6406;SDS011;3236;51.022;6.818;2022-07-30T12:21:22;4.07;;;2.40;;
6406;SDS011;3236;51.022;6.818;2022-07-30T12:23:54;7.70;;;2.83;;
6406;SDS011;3236;51.022;6.818;2022-07-30T12:26:29;4.72;;;2.63;;
6406;SDS011;3236;51.022;6.818;2022-07-30T12:29:02;6.22;;;2.78;;
6406;SDS011;3236;51.022;6.818;2022-07-30T12:31:34;4.43;;;2.55;;
6406;SDS011;3236;51.022;6.818;2022-07-30T12:34:14;4.40;;;2.33;;
6406;SDS011;3236;51.022;6.818;2022-07-30T12:36:46;4.82;;;2.30;;
6406;SDS011;3236;51.022;6.818;2022-07-30T12:39:17;6.97;;;2.80;;
6406;SDS011;3236;51.022;6.818;2022-07-30T12:41:47;5.85;;;2.60;;
6406;SDS011;3236;51.022;6.818;2022-07-30T12:44:34;4.38;;;2.95;;
6406;SDS011;3236;51.022;6.818;2022-07-30T12:47:03;6.93;;;2.90;;
6406;SDS011;3236;51.022;6.818;2022-07-30T12:49:34;3.58;;;2.53;;
6406;SDS011;3236;51.022;6.818;2022-07-30T12:52:02;4.05;;;2.20;;
6406;SDS011;3236;51.022;6.818;2022-07-30T12:54:30;3.35;;;2.25;;
6406;SDS011;3236;51.022;6.818;2022-07-30T12:56:57;4.75;;;2.78;;
6406;SDS011;3236;51.022;6.818;2022-07-30T12:59:30;6.03;;;1.90;;
6406;SDS011;3236;51.022;6.818;2022-07-30T13:02:08;6.85;;;2.40;;
6406;SDS011;3236;51.022;6.818;2022-07-30T13:04:50;3.50;;;2.10;;
6406;SDS011;3236;51.022;6.818;2022-07-30T13:07:18;6.30;;;2.22;;
6406;SDS011;3236;51.022;6.818;2022-07-30T13:09:45;5.75;;;2.10;;
6406;SDS011;3236;51.022;6.818;2022-07-30T13:12:18;7.60;;;2.30;;
6406;SDS011;3236;51.022;6.818;2022-07-30T13:14:45;4.28;;;2.25;;
6406;SDS011;3236;51.022;6.818;2022-07-30T13:17:13;6.10;;;2.45;;
6406;SDS011;3236;51.022;6.818;2022-07-30T13:19:40;6.60;;;2.42;;
6406;SDS011;3236;51.022;6.818;2022-07-30T13:22:09;5.35;;;2.17;;
6406;SDS011;3236;51.022;6.818;2022-07-30T13:24:37;6.20;;;2.38;;
6406;SDS011;3236;51.022;6.818;2022-07-30T13:27:08;6.63;;;2.13;;
6406;SDS011;3236;51.022;6.818;2022-07-30T13:29:35;7.05;;;1.83;;
6406;SDS011;3236;51.022;6.818;2022-07-30T13:32:02;5.93;;;1.75;;
6406;SDS011;3236;51.022;6.818;2022-07-30T13:34:29;5.38;;;2.10;;
6406;SDS011;3236;51.022;6.818;2022-07-30T13:36:57;3.67;;;1.98;;
6406;SDS011;3236;51.022;6.818;2022-07-30T13:39:26;2.80;;;2.08;;
6406;SDS011;3236;51.022;6.818;2022-07-30T13:41:53;3.00;;;1.58;;
6406;SDS011;3236;51.022;6.818;2022-07-30T13:44:20;5.43;;;1.70;;
6406;SDS011;3236;51.022;6.818;2022-07-30T13:46:47;4.80;;;1.88;;
6406;SDS011;3236;51.022;6.818;2022-07-30T13:49:14;2.00;;;1.38;;
6406;SDS011;3236;51.022;6.818;2022-07-30T13:51:41;5.65;;;1.75;;
6406;SDS011;3236;51.022;6.818;2022-07-30T13:54:09;4.70;;;1.52;;
6406;SDS011;3236;51.022;6.818;2022-07-30T13:56:37;2.60;;;1.45;;
6406;SDS011;3236;51.022;6.818;2022-07-30T13:59:05;4.75;;;1.70;;
6406;SDS011;3236;51.022;6.818;2022-07-30T14:01:32;3.28;;;1.50;;
6406;SDS011;3236;51.022;6.818;2022-07-30T14:04:00;2.67;;;1.60;;
6406;SDS011;3236;51.022;6.818;2022-07-30T14:06:27;4.63;;;1.90;;
6406;SDS011;3236;51.022;6.818;2022-07-30T14:08:54;2.17;;;1.75;;
6406;SDS011;3236;51.022;6.818;2022-07-30T14:11:21;3.30;;;1.55;;
6406;SDS011;3236;51.022;6.818;2022-07-30T14:13:51;3.45;;;1.70;;
6406;SDS011;3236;51.022;6.818;2022-07-30T14:16:18;3.50;;;1.58;;
6406;SDS011;3236;51.022;6.818;2022-07-30T14:18:45;2.15;;;1.13;;
6406;SDS011;3236;51.022;6.818;2022-07-30T14:21:12;4.10;;;1.40;;
6406;SDS011;3236;51.022;6.818;2022-07-30T14:23:39;3.95;;;1.27;;
6406;SDS011;3236;51.022;6.818;2022-07-30T14:26:07;1.98;;;1.52;;
6406;SDS011;3236;51.022;6.818;2022-07-30T14:28:34;4.47;;;1.73;;
6406;SDS011;3236;51.022;6.818;2022-07-30T14:31:02;1.60;;;1.13;;
6406;SDS011;3236;51.022;6.818;2022-07-30T14:33:36;2.72;;;1.20;;
6406;SDS011;3236;51.022;6.818;2022-07-30T14:36:03;4.35;;;1.23;;
6406;SDS011;3236;51.022;6.818;2022-07-30T14:38:30;4.65;;;1.38;;
6406;SDS011;3236;51.022;6.818;2022-07-30T14:40:57;9.93;;;1.52;;
6406;SDS011;3236;51.022;6.818;2022-07-30T14:43:32;1.58;;;1.30;;
6406;SDS011;3236;51.022;6.818;2022-07-30T14:46:00;4.13;;;1.73;;
6406;SDS011;3236;51.022;6.818;2022-07-30T14:48:28;1.95;;;1.20;;
6406;SDS011;3236;51.022;6.818;2022-07-30T14:50:55;2.88;;;1.10;;
6406;SDS011;3236;51.022;6.818;2022-07-30T14:53:25;2.20;;;1.42;;
6406;SDS011;3236;51.022;6.818;2022-07-30T14:55:52;2.85;;;1.48;;
6406;SDS011;3236;51.022;6.818;2022-07-30T14:58:20;2.95;;;1.45;;
6406;SDS011;3236;51.022;6.818;2022-07-30T15:00:47;4.65;;;1.42;;
6406;SDS011;3236;51.022;6.818;2022-07-30T15:03:15;2.65;;;1.48;;
6406;SDS011;3236;51.022;6.818;2022-07-30T15:05:44;5.07;;;1.58;;
6406;SDS011;3236;51.022;6.818;2022-07-30T15:08:11;2.83;;;1.45;;
6406;SDS011;3236;51.022;6.818;2022-07-30T15:10:38;5.93;;;1.75;;
6406;SDS011;3236;51.022;6.818;2022-07-30T15:13:09;2.33;;;1.20;;
6406;SDS011;3236;51.022;6.818;2022-07-30T15:15:36;2.65;;;1.00;;
6406;SDS011;3236;51.022;6.818;2022-07-30T15:18:05;6.82;;;1.27;;
6406;SDS011;3236;51.022;6.818;2022-07-30T15:20:33;3.28;;;1.40;;
6406;SDS011;3236;51.022;6.818;2022-07-30T15:23:01;3.53;;;1.20;;
6406;SDS011;3236;51.022;6.818;2022-07-30T15:25:31;1.67;;;1.17;;
6406;SDS011;3236;51.022;6.818;2022-07-30T15:28:01;4.63;;;1.58;;
6406;SDS011;3236;51.022;6.818;2022-07-30T15:30:28;2.17;;;1.20;;
6406;SDS011;3236;51.022;6.818;2022-07-30T15:32:56;2.85;;;1.20;;
6406;SDS011;3236;51.022;6.818;2022-07-30T15:35:23;4.85;;;1.23;;
6406;SDS011;3236;51.022;6.818;2022-07-30T15:37:50;8.32;;;1.40;;